Time;durP1;ratioP1;P1;durP2;ratioP2;P2;SDS_P1;SDS_P2;PMS_P1;PMS_P2;Temp;Humidity;BMP_temperature;BMP_pressure;BME280_temperature;BME280_humidity;BME280_pressure;Samples;Min_cycle;Max_cycle;Signal;HPM_P1;HPM_P2
2021/11/15 00:00:03;;;;;;;43.67;33.10;;;7.90;99.90;;;;;;5048905;28;20200;-84
2021/11/15 00:02:29;;;;;;;46.80;35.40;;;7.90;99.90;;;;;;5042067;28;20185;-84
2021/11/15 00:04:56;;;;;;;47.67;34.67;;;7.90;99.90;;;;;;5048778;28;20210;-84
2021/11/15 00:07:21;;;;;;;46.53;34.17;;;7.90;99.90;;;;;;5025517;28;20196;-83
2021/11/15 00:10:00;;;;;;;45.27;34.00;;;8.00;99.90;;;;;;5038571;28;20539;-83
2021/11/15 00:12:25;;;;;;;47.03;35.27;;;7.90;99.90;;;;;;5059200;28;20173;-82
2021/11/15 00:14:52;;;;;;;47.40;35.13;;;7.80;99.90;;;;;;5040720;28;20614;-84
2021/11/15 00:17:18;;;;;;;48.10;35.83;;;7.80;99.90;;;;;;5064927;28;20170;-83
2021/11/15 00:19:44;;;;;;;46.87;35.90;;;7.80;99.90;;;;;;5055041;28;20260;-83
2021/11/15 00:22:09;;;;;;;47.30;34.63;;;7.70;99.90;;;;;;5036933;28;20199;-83
2021/11/15 00:24:35;;;;;;;49.73;36.73;;;7.70;99.90;;;;;;5035606;28;20233;-82
2021/11/15 00:27:01;;;;;;;49.03;35.57;;;7.70;99.90;;;;;;5041079;28;20707;-83
2021/11/15 00:29:28;;;;;;;45.47;34.97;;;7.70;99.90;;;;;;5036889;28;20174;-84
2021/11/15 00:31:54;;;;;;;46.23;34.40;;;7.70;99.90;;;;;;5036884;28;20568;-87
2021/11/15 00:34:20;;;;;;;47.10;36.47;;;7.80;99.90;;;;;;5036968;28;20186;-83
2021/11/15 00:36:46;;;;;;;49.63;36.13;;;7.60;99.90;;;;;;5036650;28;20181;-82
2021/11/15 00:39:12;;;;;;;50.67;36.43;;;7.60;99.90;;;;;;5036193;28;20173;-84
2021/11/15 00:41:40;;;;;;;52.00;37.53;;;7.50;99.90;;;;;;5037102;28;20178;-86
2021/11/15 00:44:05;;;;;;;49.53;35.87;;;7.50;99.90;;;;;;5035859;28;20352;-83
2021/11/15 00:46:31;;;;;;;49.77;36.90;;;7.60;99.90;;;;;;5037675;28;20216;-84
2021/11/15 00:48:57;;;;;;;50.63;36.87;;;7.60;99.90;;;;;;5035436;28;20633;-85
2021/11/15 00:51:27;;;;;;;47.10;37.00;;;7.70;99.90;;;;;;5037301;28;20261;-82
2021/11/15 00:53:54;;;;;;;51.27;37.13;;;7.70;99.90;;;;;;5039934;28;20223;-82
2021/11/15 00:56:19;;;;;;;50.13;36.07;;;7.60;99.90;;;;;;5036894;28;20166;-83
2021/11/15 00:58:45;;;;;;;52.97;37.27;;;7.80;99.90;;;;;;5035535;28;20166;-84
2021/11/15 01:01:11;;;;;;;52.10;37.70;;;7.70;99.90;;;;;;5034316;28;20247;-84
2021/11/15 01:03:39;;;;;;;46.87;35.20;;;7.70;99.90;;;;;;5035222;28;20188;-84
2021/11/15 01:06:04;;;;;;;54.27;38.27;;;7.70;99.90;;;;;;5035200;28;20685;-83
2021/11/15 01:08:30;;;;;;;50.00;37.33;;;7.60;99.90;;;;;;5035035;28;20182;-83
2021/11/15 01:10:56;;;;;;;50.23;36.97;;;7.70;99.90;;;;;;5035302;28;20184;-83
2021/11/15 01:13:23;;;;;;;51.10;36.70;;;7.70;99.90;;;;;;5037306;28;20198;-83
2021/11/15 01:15:49;;;;;;;48.57;36.00;;;7.80;99.90;;;;;;5034991;28;20177;-83
2021/11/15 01:18:16;;;;;;;52.30;36.90;;;7.80;99.90;;;;;;5035247;28;20173;-83
2021/11/15 01:20:42;;;;;;;49.43;36.00;;;7.80;99.90;;;;;;5034906;28;20174;-83
2021/11/15 01:23:08;;;;;;;48.03;35.73;;;7.70;99.90;;;;;;5037579;28;20162;-84
2021/11/15 01:25:38;;;;;;;52.70;38.90;;;7.80;99.90;;;;;;5037658;28;20205;-83
2021/11/15 01:28:05;;;;;;;51.20;34.97;;;7.80;99.90;;;;;;5036845;28;20169;-83
2021/11/15 01:30:31;;;;;;;54.10;39.10;;;7.80;99.90;;;;;;5036087;28;20335;-83
2021/11/15 01:32:57;;;;;;;49.00;36.37;;;7.80;99.90;;;;;;5035669;28;20201;-85
2021/11/15 01:35:24;;;;;;;48.63;35.33;;;7.80;99.90;;;;;;5036618;28;20184;-82
2021/11/15 01:37:51;;;;;;;53.57;37.37;;;7.80;99.90;;;;;;5036062;28;20184;-83
2021/11/15 01:40:21;;;;;;;51.77;37.17;;;7.80;99.90;;;;;;5036354;28;20177;-82
2021/11/15 01:42:46;;;;;;;50.10;36.40;;;7.60;99.90;;;;;;5036205;28;20554;-82
2021/11/15 01:45:17;;;;;;;53.70;35.83;;;7.60;99.90;;;;;;5035976;28;20217;-83
2021/11/15 01:47:43;;;;;;;52.47;36.97;;;7.80;99.90;;;;;;5036712;28;20575;-84
2021/11/15 01:50:11;;;;;;;54.23;35.97;;;7.60;99.90;;;;;;5034883;28;20612;-84
2021/11/15 01:52:38;;;;;;;52.07;36.87;;;7.70;99.90;;;;;;5035770;28;20165;-83
2021/11/15 01:55:05;;;;;;;51.17;35.60;;;7.60;99.90;;;;;;5037346;28;20181;-83
2021/11/15 01:57:31;;;;;;;51.53;36.47;;;7.60;99.90;;;;;;5036615;28;20181;-82
2021/11/15 01:59:57;;;;;;;55.27;36.97;;;7.40;99.90;;;;;;5037270;28;20182;-82
2021/11/15 02:02:26;;;;;;;55.80;37.57;;;7.60;99.90;;;;;;5035596;28;20189;-83
2021/11/15 02:04:57;;;;;;;57.87;37.50;;;7.60;99.90;;;;;;5037143;28;20224;-83
2021/11/15 02:07:24;;;;;;;54.07;38.20;;;7.60;99.90;;;;;;5037382;28;20701;-83
2021/11/15 02:09:50;;;;;;;56.00;38.47;;;7.70;99.90;;;;;;5037699;28;20197;-83
2021/11/15 02:12:16;;;;;;;55.67;38.23;;;7.60;99.90;;;;;;5038227;28;20182;-84
2021/11/15 02:14:42;;;;;;;53.10;37.27;;;7.70;99.90;;;;;;5037886;28;20268;-85
2021/11/15 02:17:09;;;;;;;54.60;38.83;;;7.60;99.90;;;;;;5037100;28;20201;-83
2021/11/15 02:19:34;;;;;;;55.07;37.70;;;7.70;99.90;;;;;;5038286;28;20181;-82
2021/11/15 02:22:00;;;;;;;53.63;38.93;;;7.70;99.90;;;;;;5036667;28;20169;-82
2021/11/15 02:24:26;;;;;;;58.60;38.97;;;7.80;99.90;;;;;;5034356;28;20219;-84
2021/11/15 02:26:53;;;;;;;54.40;38.10;;;7.80;99.90;;;;;;5033741;28;20617;-83
2021/11/15 02:29:20;;;;;;;55.03;39.93;;;7.80;99.90;;;;;;5034174;28;20181;-83
2021/11/15 02:31:46;;;;;;;54.30;39.10;;;7.90;99.90;;;;;;5033405;28;20540;-82
2021/11/15 02:34:11;;;;;;;56.73;39.47;;;8.00;99.90;;;;;;5034480;28;20174;-82
2021/11/15 02:36:41;;;;;;;56.97;38.97;;;8.00;99.90;;;;;;5035003;28;20181;-83
2021/11/15 02:39:08;;;;;;;54.80;37.50;;;8.00;99.90;;;;;;5034463;28;20264;-84
2021/11/15 02:41:34;;;;;;;54.63;38.37;;;8.00;99.90;;;;;;5033568;28;20220;-82
2021/11/15 02:44:03;;;;;;;56.33;38.13;;;8.00;99.90;;;;;;5033800;28;20581;-82
2021/11/15 02:46:30;;;;;;;62.30;39.93;;;8.00;99.90;;;;;;5035006;28;20212;-81
2021/11/15 02:48:56;;;;;;;57.10;36.97;;;7.90;99.90;;;;;;5035398;28;20185;-83
2021/11/15 02:51:24;;;;;;;58.37;40.67;;;7.90;99.90;;;;;;5036341;28;20205;-82
2021/11/15 02:53:50;;;;;;;59.90;37.30;;;7.90;99.90;;;;;;5038182;28;20855;-82
2021/11/15 02:56:15;;;;;;;62.63;40.53;;;7.90;99.90;;;;;;5040476;28;20174;-79
2021/11/15 02:58:41;;;;;;;62.30;39.77;;;7.90;99.90;;;;;;5038846;28;20185;-81
2021/11/15 03:01:10;;;;;;;65.83;41.37;;;7.90;99.90;;;;;;5039245;28;20645;-80
2021/11/15 03:03:37;;;;;;;68.50;40.27;;;7.90;99.90;;;;;;5045600;28;20211;-83
2021/11/15 03:06:03;;;;;;;63.37;41.37;;;7.90;99.90;;;;;;5044350;28;20224;-84
2021/11/15 03:08:28;;;;;;;65.70;39.13;;;8.00;99.90;;;;;;5047554;28;20216;-83
2021/11/15 03:11:00;;;;;;;67.60;41.93;;;7.80;99.90;;;;;;5037728;28;20544;-81
2021/11/15 03:13:32;;;;;;;66.60;41.17;;;7.90;99.90;;;;;;5035894;28;20256;-83
2021/11/15 03:15:59;;;;;;;62.60;39.97;;;7.80;99.90;;;;;;5033069;28;20186;-83
2021/11/15 03:18:28;;;;;;;62.13;39.43;;;7.80;99.90;;;;;;5032405;28;20257;-83
2021/11/15 03:21:03;;;;;;;62.97;40.47;;;7.70;99.90;;;;;;5034542;28;20170;-82
2021/11/15 03:23:31;;;;;;;62.87;40.53;;;7.80;99.90;;;;;;5032434;28;20276;-82
2021/11/15 03:25:59;;;;;;;60.20;41.23;;;7.90;99.90;;;;;;5033360;28;20209;-83
2021/11/15 03:28:32;;;;;;;64.20;41.80;;;7.80;99.90;;;;;;5033792;28;20169;-83
2021/11/15 03:31:01;;;;;;;67.37;41.33;;;7.80;99.90;;;;;;5033206;28;20231;-82
2021/11/15 03:33:30;;;;;;;61.10;39.93;;;8.00;99.90;;;;;;5032920;28;20176;-81
2021/11/15 03:35:55;;;;;;;56.77;39.67;;;7.90;99.90;;;;;;5034242;28;20233;-81
2021/11/15 03:38:21;;;;;;;61.97;39.27;;;7.90;99.90;;;;;;5033580;28;20303;-82
2021/11/15 03:40:47;;;;;;;58.90;37.23;;;7.90;99.90;;;;;;5037545;28;20166;-82
2021/11/15 03:43:13;;;;;;;58.40;39.37;;;7.90;99.90;;;;;;5038704;28;20180;-80
2021/11/15 03:45:40;;;;;;;57.43;39.13;;;7.90;99.90;;;;;;5045344;28;20201;-81
2021/11/15 03:48:08;;;;;;;54.43;37.43;;;7.90;99.90;;;;;;5049747;28;20237;-80
2021/11/15 03:50:35;;;;;;;57.70;38.80;;;7.90;99.90;;;;;;5050235;28;20166;-81
2021/11/15 03:53:03;;;;;;;57.57;37.40;;;7.90;99.90;;;;;;5050355;28;20196;-80
2021/11/15 03:55:29;;;;;;;55.87;37.97;;;7.90;99.90;;;;;;5046955;28;20173;-82
2021/11/15 03:57:58;;;;;;;50.50;35.23;;;8.00;99.90;;;;;;5043514;28;20192;-83
2021/11/15 04:00:30;;;;;;;51.43;36.27;;;7.90;99.90;;;;;;5037168;28;20174;-82
2021/11/15 04:03:01;;;;;;;49.70;34.53;;;8.00;99.90;;;;;;5032519;28;20268;-82
2021/11/15 04:05:32;;;;;;;50.87;36.10;;;8.00;99.90;;;;;;5032895;28;20204;-83
2021/11/15 04:08:00;;;;;;;51.80;35.57;;;7.90;99.90;;;;;;5037722;28;20189;-82
2021/11/15 04:10:38;;;;;;;50.17;36.27;;;7.90;99.90;;;;;;5034241;28;20232;-82
2021/11/15 04:13:22;;;;;;;50.17;36.07;;;7.90;99.90;;;;;;5035530;28;20545;-81
2021/11/15 04:15:54;;;;;;;48.63;35.13;;;8.00;99.90;;;;;;5035118;28;20255;-82
2021/11/15 04:18:26;;;;;;;50.50;37.03;;;8.00;99.90;;;;;;5032602;28;20173;-83
2021/11/15 04:20:53;;;;;;;48.83;34.77;;;8.00;99.90;;;;;;5032515;28;20177;-82
2021/11/15 04:23:19;;;;;;;51.47;36.67;;;8.00;99.90;;;;;;5032571;28;20243;-81
2021/11/15 04:25:45;;;;;;;47.97;34.77;;;7.90;99.90;;;;;;5035160;28;20209;-83
2021/11/15 04:28:10;;;;;;;48.60;34.70;;;7.90;99.90;;;;;;5031936;28;20181;-83
2021/11/15 04:30:36;;;;;;;50.70;37.67;;;7.90;99.90;;;;;;5034483;28;20181;-82
2021/11/15 04:33:05;;;;;;;48.07;35.67;;;7.90;99.90;;;;;;5032702;28;20170;-82
2021/11/15 04:35:31;;;;;;;50.17;35.40;;;7.90;99.90;;;;;;5031749;28;20193;-83
2021/11/15 04:37:57;;;;;;;52.30;36.33;;;8.00;99.90;;;;;;5033174;28;20208;-83
2021/11/15 04:40:23;;;;;;;52.57;38.30;;;8.00;99.90;;;;;;5032340;28;20170;-83
2021/11/15 04:42:49;;;;;;;58.40;39.87;;;8.00;99.90;;;;;;5031043;28;20180;-84
2021/11/15 04:45:15;;;;;;;62.00;41.70;;;8.00;99.90;;;;;;5034079;28;20299;-82
2021/11/15 04:47:42;;;;;;;58.23;40.70;;;8.00;99.90;;;;;;5034338;28;20649;-82
2021/11/15 04:50:10;;;;;;;57.00;40.23;;;8.00;99.90;;;;;;5031350;28;20196;-81
2021/11/15 04:52:36;;;;;;;56.53;39.33;;;8.10;99.90;;;;;;5033499;28;20174;-82
2021/11/15 04:55:04;;;;;;;58.90;41.83;;;8.30;99.90;;;;;;5031613;28;20231;-83
2021/11/15 04:57:29;;;;;;;62.80;42.37;;;8.20;99.90;;;;;;5031637;28;20542;-85
2021/11/15 04:59:59;;;;;;;56.50;39.67;;;8.30;99.90;;;;;;5031178;28;20181;-82
2021/11/15 05:02:25;;;;;;;59.30;40.40;;;8.30;99.90;;;;;;5034582;28;20190;-82
2021/11/15 05:04:51;;;;;;;67.50;45.70;;;8.30;99.90;;;;;;5035869;28;20305;-82
2021/11/15 05:07:16;;;;;;;62.77;43.77;;;8.30;99.90;;;;;;5035353;28;20193;-82
2021/11/15 05:09:42;;;;;;;63.63;43.23;;;8.40;99.90;;;;;;5035416;28;20670;-83
2021/11/15 05:12:08;;;;;;;63.03;43.17;;;8.30;99.90;;;;;;5035054;28;20721;-84
2021/11/15 05:14:33;;;;;;;62.30;41.97;;;8.40;99.90;;;;;;5036160;28;20166;-82
2021/11/15 05:16:59;;;;;;;64.40;42.60;;;8.40;99.90;;;;;;5034977;28;20180;-82
2021/11/15 05:19:25;;;;;;;58.73;41.30;;;8.40;99.90;;;;;;5035123;28;20264;-82
2021/11/15 05:21:51;;;;;;;63.50;43.27;;;8.20;99.90;;;;;;5035086;28;20514;-82
2021/11/15 05:24:17;;;;;;;64.67;41.97;;;8.30;99.90;;;;;;5035727;28;20202;-82
2021/11/15 05:26:42;;;;;;;60.70;41.73;;;8.30;99.90;;;;;;5034656;28;20180;-83
2021/11/15 05:29:08;;;;;;;56.47;38.03;;;8.20;99.90;;;;;;5034644;28;20184;-81
2021/11/15 05:31:35;;;;;;;60.60;39.53;;;8.20;99.90;;;;;;5034959;28;20190;-81
2021/11/15 05:34:02;;;;;;;62.60;41.73;;;8.20;99.90;;;;;;5035492;28;20170;-82
2021/11/15 05:36:28;;;;;;;59.93;39.80;;;8.00;99.90;;;;;;5035998;28;20184;-83
2021/11/15 05:38:54;;;;;;;70.80;44.93;;;8.00;99.90;;;;;;5036892;28;20170;-84
2021/11/15 05:41:20;;;;;;;66.63;42.23;;;8.00;99.90;;;;;;5034669;28;20212;-82
2021/11/15 05:43:45;;;;;;;71.33;45.03;;;7.70;99.90;;;;;;5037063;28;20181;-82
2021/11/15 05:46:11;;;;;;;65.07;44.87;;;8.00;99.90;;;;;;5039526;28;20310;-83
2021/11/15 05:48:37;;;;;;;68.67;43.97;;;8.10;99.90;;;;;;5038516;28;20664;-83
2021/11/15 05:51:03;;;;;;;78.73;47.17;;;8.10;99.90;;;;;;5038987;28;20185;-83
2021/11/15 05:53:29;;;;;;;78.20;46.60;;;8.10;99.90;;;;;;5042140;28;20173;-81
2021/11/15 05:55:54;;;;;;;76.17;45.70;;;8.20;99.90;;;;;;5038598;28;20189;-82
2021/11/15 05:58:20;;;;;;;80.53;49.07;;;8.30;99.90;;;;;;5047158;28;20188;-83
2021/11/15 06:00:46;;;;;;;81.17;48.80;;;8.30;99.90;;;;;;5041716;28;20258;-82
2021/11/15 06:03:12;;;;;;;85.90;49.63;;;8.20;99.90;;;;;;5044014;28;20189;-82
2021/11/15 06:05:38;;;;;;;87.00;51.37;;;8.20;99.90;;;;;;5041759;28;20206;-82
2021/11/15 06:08:04;;;;;;;85.00;50.43;;;8.30;99.90;;;;;;5035544;28;20189;-83
2021/11/15 06:10:30;;;;;;;85.07;50.97;;;8.30;99.90;;;;;;5035195;28;20201;-81
2021/11/15 06:12:59;;;;;;;85.20;48.40;;;8.30;99.90;;;;;;5035420;28;20177;-83
2021/11/15 06:15:25;;;;;;;84.17;47.33;;;8.30;99.90;;;;;;5037561;28;20180;-84
2021/11/15 06:17:52;;;;;;;93.90;52.63;;;8.30;99.90;;;;;;5035256;28;20584;-82
2021/11/15 06:20:19;;;;;;;89.13;50.80;;;8.20;99.90;;;;;;5034891;28;20181;-82
2021/11/15 06:22:45;;;;;;;87.03;48.23;;;8.30;99.90;;;;;;5046108;28;20197;-81
2021/11/15 06:25:15;;;;;;;92.33;51.93;;;8.30;99.90;;;;;;5046059;28;20198;-79
2021/11/15 06:27:42;;;;;;;87.63;51.50;;;8.20;99.90;;;;;;5051934;28;20153;-81
2021/11/15 06:30:11;;;;;;;93.33;55.80;;;8.20;99.90;;;;;;5044361;28;20182;-83
2021/11/15 06:32:37;;;;;;;90.63;52.47;;;8.20;99.90;;;;;;5038387;28;20204;-82
2021/11/15 06:35:05;;;;;;;92.40;53.53;;;8.20;99.90;;;;;;5019763;28;20205;-83
2021/11/15 06:37:32;;;;;;;92.73;57.23;;;8.20;99.90;;;;;;5035851;28;20656;-83
2021/11/15 06:39:59;;;;;;;91.50;54.60;;;8.30;99.90;;;;;;5035284;28;20170;-82
2021/11/15 06:42:25;;;;;;;94.23;55.53;;;8.30;99.90;;;;;;5037735;28;20170;-82
2021/11/15 06:44:52;;;;;;;90.13;54.70;;;8.40;99.90;;;;;;5036554;28;20236;-84
2021/11/15 06:47:25;;;;;;;91.03;54.87;;;8.60;99.90;;;;;;5035301;28;20548;-86
2021/11/15 06:49:52;;;;;;;90.60;52.80;;;8.40;99.90;;;;;;5038319;28;20200;-83
2021/11/15 06:52:22;;;;;;;84.10;50.33;;;8.60;99.90;;;;;;5038788;28;20736;-82
2021/11/15 06:54:49;;;;;;;83.53;52.30;;;8.40;99.90;;;;;;5036040;28;20652;-85
2021/11/15 06:57:15;;;;;;;89.07;53.97;;;8.40;99.90;;;;;;5036115;28;20223;-86
2021/11/15 06:59:41;;;;;;;89.50;54.63;;;8.50;99.90;;;;;;5032811;28;20170;-86
2021/11/15 07:02:07;;;;;;;88.00;52.53;;;8.50;99.90;;;;;;5036115;28;20196;-84
2021/11/15 07:04:37;;;;;;;83.20;49.53;;;8.40;99.90;;;;;;5034212;28;20665;-85
2021/11/15 07:07:03;;;;;;;80.37;49.70;;;8.40;99.90;;;;;;5035081;28;20196;-85
2021/11/15 07:09:29;;;;;;;73.77;45.67;;;8.30;99.90;;;;;;5033009;28;20641;-82
2021/11/15 07:11:57;;;;;;;84.80;52.63;;;8.30;99.90;;;;;;5033272;28;20699;-83
2021/11/15 07:14:22;;;;;;;79.93;50.13;;;8.30;99.90;;;;;;5049352;28;20181;-82
2021/11/15 07:16:49;;;;;;;74.33;47.37;;;8.30;99.90;;;;;;5034052;28;20239;-82
2021/11/15 07:19:15;;;;;;;78.13;47.73;;;8.30;99.90;;;;;;5034584;28;20176;-83
2021/11/15 07:21:41;;;;;;;74.07;46.57;;;8.40;99.90;;;;;;5052330;28;20185;-82
2021/11/15 07:24:06;;;;;;;71.93;46.33;;;8.30;99.90;;;;;;5033042;28;20198;-82
2021/11/15 07:26:32;;;;;;;72.83;48.40;;;8.30;99.90;;;;;;5034446;28;20181;-81
2021/11/15 07:28:59;;;;;;;72.40;45.73;;;8.30;99.90;;;;;;5048979;28;20182;-82
2021/11/15 07:31:26;;;;;;;72.47;46.67;;;8.40;99.90;;;;;;5045170;28;20233;-82
2021/11/15 07:33:52;;;;;;;75.90;45.07;;;8.50;99.90;;;;;;5046479;28;20169;-82
2021/11/15 07:36:18;;;;;;;81.10;50.20;;;8.40;99.90;;;;;;5040601;28;20261;-83
2021/11/15 07:38:44;;;;;;;79.60;48.07;;;8.40;99.90;;;;;;5075610;28;20153;-84
2021/11/15 07:41:10;;;;;;;75.73;48.20;;;8.40;99.90;;;;;;5052225;28;20161;-82
2021/11/15 07:43:36;;;;;;;68.07;45.43;;;8.30;99.90;;;;;;5051941;28;20153;-83
2021/11/15 07:46:02;;;;;;;69.57;45.70;;;8.30;99.90;;;;;;5051806;28;20216;-82
2021/11/15 07:48:29;;;;;;;74.33;49.03;;;8.30;99.90;;;;;;5049119;28;20174;-82
2021/11/15 07:50:55;;;;;;;78.60;49.50;;;8.30;99.90;;;;;;5052405;28;20181;-84
2021/11/15 07:53:21;;;;;;;81.80;51.70;;;8.20;99.90;;;;;;5036779;28;20176;-83
2021/11/15 07:55:47;;;;;;;82.10;51.00;;;8.40;99.90;;;;;;5067436;28;20181;-83
2021/11/15 07:58:15;;;;;;;75.10;45.80;;;8.40;99.90;;;;;;5034515;28;20249;-82
2021/11/15 08:00:41;;;;;;;73.93;49.03;;;8.40;99.90;;;;;;5034935;28;20173;-83
2021/11/15 08:03:08;;;;;;;76.27;48.30;;;8.50;99.90;;;;;;5033115;28;20182;-83
2021/11/15 08:05:34;;;;;;;77.37;46.97;;;8.40;99.90;;;;;;5034737;28;20213;-83
2021/11/15 08:08:01;;;;;;;74.97;46.10;;;8.40;99.90;;;;;;5034887;28;20243;-83
2021/11/15 08:10:27;;;;;;;71.17;42.83;;;8.30;99.90;;;;;;5034365;28;20240;-84
2021/11/15 08:12:56;;;;;;;70.10;46.13;;;8.30;99.90;;;;;;5035072;28;20536;-84
2021/11/15 08:15:23;;;;;;;68.30;43.73;;;8.20;99.90;;;;;;5035141;28;20243;-81
2021/11/15 08:17:52;;;;;;;69.40;44.73;;;8.20;99.90;;;;;;5037954;28;20173;-82
2021/11/15 08:20:24;;;;;;;76.33;45.60;;;8.30;99.90;;;;;;5032985;28;20197;-81
2021/11/15 08:23:01;;;;;;;78.93;44.93;;;8.30;99.90;;;;;;5034944;28;20170;-82
2021/11/15 08:25:27;;;;;;;68.13;43.73;;;8.20;99.90;;;;;;5033779;28;20197;-84
2021/11/15 08:27:57;;;;;;;69.70;40.57;;;8.20;99.90;;;;;;5032682;28;20704;-84
2021/11/15 08:30:24;;;;;;;70.30;42.10;;;8.30;99.90;;;;;;5032197;28;20645;-83
2021/11/15 08:32:51;;;;;;;64.87;37.60;;;8.20;99.90;;;;;;5042356;28;20539;-82
2021/11/15 08:35:24;;;;;;;60.20;35.67;;;8.10;99.90;;;;;;5037626;28;20174;-83
2021/11/15 08:38:14;;;;;;;58.17;37.73;;;8.10;99.90;;;;;;5038355;28;20174;-83
2021/11/15 08:40:50;;;;;;;54.57;33.43;;;7.90;99.90;;;;;;5039870;28;20189;-86
2021/11/15 08:43:22;;;;;;;57.23;38.03;;;7.90;99.90;;;;;;5037576;28;20173;-82
2021/11/15 08:45:50;;;;;;;54.60;33.23;;;7.90;99.90;;;;;;5036364;28;20213;-83
2021/11/15 08:48:16;;;;;;;55.83;35.17;;;8.00;99.90;;;;;;5037565;28;20203;-81
2021/11/15 08:50:43;;;;;;;51.67;33.87;;;8.10;99.90;;;;;;5040759;28;20185;-82
2021/11/15 08:53:09;;;;;;;51.27;32.33;;;8.10;99.90;;;;;;5041927;28;20165;-83
2021/11/15 08:55:36;;;;;;;49.87;33.00;;;8.10;99.90;;;;;;5041844;28;20176;-83
2021/11/15 08:58:03;;;;;;;48.27;33.20;;;8.10;99.90;;;;;;5070623;28;20181;-82
2021/11/15 09:00:32;;;;;;;49.83;32.97;;;8.20;99.90;;;;;;5046141;28;20185;-82
2021/11/15 09:02:58;;;;;;;50.77;30.10;;;8.20;99.90;;;;;;5042607;28;20166;-83
2021/11/15 09:05:25;;;;;;;42.63;30.33;;;8.20;99.90;;;;;;5065870;28;20221;-83
2021/11/15 09:07:51;;;;;;;47.00;31.60;;;8.20;99.90;;;;;;5039078;28;20190;-83
2021/11/15 09:10:17;;;;;;;44.10;29.87;;;8.20;99.90;;;;;;5040744;28;20312;-83
2021/11/15 09:12:44;;;;;;;40.47;27.10;;;8.20;99.90;;;;;;5040055;28;20201;-82
2021/11/15 09:15:13;;;;;;;40.83;28.63;;;8.10;99.90;;;;;;5041161;28;20177;-83
2021/11/15 09:17:43;;;;;;;39.40;27.43;;;8.10;99.90;;;;;;5061028;28;20721;-84
2021/11/15 09:20:11;;;;;;;42.30;28.77;;;8.10;99.90;;;;;;5039701;28;20182;-82
2021/11/15 09:22:39;;;;;;;38.63;26.43;;;8.20;99.90;;;;;;5059892;28;20689;-84
2021/11/15 09:25:06;;;;;;;43.60;27.40;;;8.30;99.90;;;;;;5041271;28;20304;-84
2021/11/15 09:27:33;;;;;;;40.17;28.90;;;8.30;99.90;;;;;;5046527;28;20169;-83
2021/11/15 09:30:00;;;;;;;40.07;26.40;;;8.30;99.90;;;;;;5080272;28;20170;-82
2021/11/15 09:32:26;;;;;;;36.37;25.10;;;8.40;99.90;;;;;;5074565;28;20174;-82
2021/11/15 09:34:52;;;;;;;35.70;24.03;;;8.20;99.90;;;;;;5045672;28;20204;-79
2021/11/15 09:37:19;;;;;;;36.70;25.33;;;8.20;99.90;;;;;;5044620;28;20252;-82
2021/11/15 09:39:48;;;;;;;39.40;25.57;;;8.10;99.90;;;;;;5051279;28;20186;-81
2021/11/15 09:42:14;;;;;;;35.87;24.97;;;8.20;99.90;;;;;;5053198;28;20266;-81
2021/11/15 09:44:41;;;;;;;31.97;22.50;;;8.30;99.90;;;;;;5079683;28;20202;-82
2021/11/15 09:47:08;;;;;;;36.30;24.07;;;8.20;99.90;;;;;;5041697;28;20268;-82
2021/11/15 09:49:38;;;;;;;36.53;23.03;;;8.20;99.90;;;;;;5039306;28;20197;-82
2021/11/15 09:52:24;;;;;;;36.30;25.40;;;8.00;99.90;;;;;;5067938;28;20296;-84
2021/11/15 09:54:51;;;;;;;39.67;26.67;;;8.10;99.90;;;;;;5049387;28;20192;-84
2021/11/15 09:57:18;;;;;;;36.73;26.07;;;8.00;99.90;;;;;;5049533;28;20201;-83
2021/11/15 09:59:45;;;;;;;38.83;26.20;;;8.10;99.90;;;;;;5047280;28;20193;-83
2021/11/15 10:02:12;;;;;;;40.57;26.30;;;8.10;99.90;;;;;;5044825;28;20191;-84
2021/11/15 10:04:39;;;;;;;37.50;26.57;;;8.10;99.90;;;;;;5035120;28;20680;-84
2021/11/15 10:07:05;;;;;;;43.40;29.57;;;8.10;99.90;;;;;;5037436;28;20185;-83
2021/11/15 10:09:37;;;;;;;43.53;29.10;;;8.10;99.90;;;;;;5035293;28;20558;-85
2021/11/15 10:12:14;;;;;;;38.87;26.47;;;8.20;99.90;;;;;;5035521;28;20215;-85
2021/11/15 10:15:05;;;;;;;36.97;25.23;;;8.20;99.90;;;;;;5067036;28;20288;-83
2021/11/15 10:17:45;;;;;;;37.97;26.23;;;8.30;99.90;;;;;;5067285;28;20219;-82
2021/11/15 10:20:12;;;;;;;41.43;27.13;;;8.30;99.90;;;;;;5067736;28;20169;-83
2021/11/15 10:22:40;;;;;;;39.03;28.30;;;8.40;99.90;;;;;;5034988;28;20227;-85
2021/11/15 10:25:06;;;;;;;44.40;28.77;;;8.30;99.90;;;;;;5035311;28;20205;-83
2021/11/15 10:27:32;;;;;;;42.07;28.37;;;8.30;99.90;;;;;;5038984;28;20183;-84
2021/11/15 10:30:09;;;;;;;40.27;26.57;;;8.30;99.90;;;;;;5036007;28;20637;-82
2021/11/15 10:32:42;;;;;;;40.57;28.67;;;8.30;99.90;;;;;;5033736;28;20275;-83
2021/11/15 10:35:09;;;;;;;38.43;26.43;;;8.30;99.90;;;;;;5034950;28;20180;-84
2021/11/15 10:37:39;;;;;;;42.93;26.90;;;8.30;99.90;;;;;;5037424;28;20170;-82
2021/11/15 10:40:09;;;;;;;44.83;29.60;;;8.20;99.90;;;;;;5071566;28;20177;-83
2021/11/15 10:42:45;;;;;;;44.27;29.33;;;8.20;99.90;;;;;;5037873;28;20594;-83
2021/11/15 10:45:15;;;;;;;40.97;27.97;;;8.20;99.90;;;;;;5037083;28;20561;-84
2021/11/15 10:47:59;;;;;;;45.10;28.57;;;8.10;99.90;;;;;;5037618;28;20216;-83
2021/11/15 10:50:54;;;;;;;45.20;29.93;;;8.20;99.90;;;;;;5036408;28;20184;-82
2021/11/15 10:53:43;;;;;;;44.10;29.90;;;8.10;99.90;;;;;;5033607;28;20231;-83
2021/11/15 10:56:24;;;;;;;51.77;30.43;;;8.10;99.90;;;;;;5034370;28;20185;-83
2021/11/15 10:58:51;;;;;;;42.17;26.07;;;8.10;99.90;;;;;;5034822;28;20162;-82
2021/11/15 11:01:18;;;;;;;41.40;27.90;;;8.10;99.90;;;;;;5033247;28;20661;-82
2021/11/15 11:03:44;;;;;;;44.23;27.27;;;7.90;99.90;;;;;;5034608;28;20174;-84
2021/11/15 11:06:15;;;;;;;45.90;30.00;;;7.90;99.90;;;;;;5034665;28;20221;-83
2021/11/15 11:08:49;;;;;;;45.97;29.23;;;7.90;99.90;;;;;;5038621;28;20187;-81
2021/11/15 11:11:27;;;;;;;41.33;27.23;;;7.90;99.90;;;;;;5047727;28;20180;-84
2021/11/15 11:14:03;;;;;;;41.63;27.50;;;8.00;99.90;;;;;;5040493;28;20170;-83
2021/11/15 11:17:02;;;;;;;41.07;26.43;;;8.00;99.90;;;;;;5071969;28;20223;-83
2021/11/15 11:19:44;;;;;;;40.93;27.10;;;7.90;99.90;;;;;;5038392;28;20189;-84
2021/11/15 11:25:09;;;;;;;39.70;26.50;;;7.80;99.90;;;;;;5039424;28;20201;-84
2021/11/15 11:27:35;;;;;;;43.13;27.17;;;7.80;99.90;;;;;;5071679;28;20181;-82
2021/11/15 11:30:06;;;;;;;40.83;27.53;;;7.80;99.90;;;;;;5036468;28;20626;-84
2021/11/15 11:32:32;;;;;;;39.93;26.43;;;8.00;99.90;;;;;;5069808;28;20212;-81
2021/11/15 11:35:00;;;;;;;38.23;25.40;;;7.90;99.90;;;;;;5070135;28;20614;-83
2021/11/15 11:37:29;;;;;;;40.63;26.43;;;7.90;99.90;;;;;;5069794;28;20534;-84
2021/11/15 11:39:58;;;;;;;37.30;24.47;;;7.90;99.90;;;;;;5038339;28;20149;-83
2021/11/15 11:42:25;;;;;;;40.60;25.17;;;7.90;99.90;;;;;;5063237;28;20252;-82
2021/11/15 11:44:52;;;;;;;40.97;25.40;;;8.00;99.90;;;;;;5023917;28;20201;-82
2021/11/15 11:47:20;;;;;;;42.53;26.67;;;8.00;99.90;;;;;;5036766;28;20176;-83
2021/11/15 11:49:47;;;;;;;40.97;26.40;;;8.10;99.90;;;;;;5035460;28;20201;-81
2021/11/15 11:52:21;;;;;;;38.53;25.47;;;7.90;99.90;;;;;;5034284;28;20641;-83
2021/11/15 11:54:48;;;;;;;35.10;23.87;;;7.90;99.90;;;;;;5031714;28;20189;-81
2021/11/15 11:57:29;;;;;;;39.73;27.77;;;7.80;99.90;;;;;;5040140;28;20173;-83
2021/11/15 12:00:00;;;;;;;41.90;28.00;;;7.80;99.90;;;;;;5038708;28;20199;-83
2021/11/15 12:02:31;;;;;;;39.17;24.97;;;7.90;99.90;;;;;;5040454;28;20190;-82
2021/11/15 12:05:10;;;;;;;41.23;26.43;;;7.90;99.90;;;;;;5038582;28;20209;-82
2021/11/15 12:08:00;;;;;;;39.47;26.20;;;7.90;99.90;;;;;;5037278;28;20169;-84
2021/11/15 12:10:59;;;;;;;42.13;27.30;;;7.90;99.90;;;;;;5026132;28;20215;-85
2021/11/15 12:13:48;;;;;;;41.57;25.83;;;7.90;99.90;;;;;;5045363;28;20197;-83
2021/11/15 12:16:15;;;;;;;42.53;27.50;;;7.80;99.90;;;;;;5043511;28;20237;-83
2021/11/15 12:19:03;;;;;;;44.80;27.33;;;7.80;99.90;;;;;;5044673;28;20193;-83
2021/11/15 12:21:37;;;;;;;38.60;25.10;;;7.80;99.90;;;;;;5044877;28;20680;-83
2021/11/15 12:24:17;;;;;;;41.77;28.10;;;7.80;99.90;;;;;;5045224;28;20204;-83
2021/11/15 12:26:48;;;;;;;43.63;27.13;;;8.00;99.90;;;;;;5046665;28;20501;-83
2021/11/15 12:29:27;;;;;;;43.67;28.43;;;8.00;99.90;;;;;;5045078;28;20178;-83
2021/11/15 12:31:55;;;;;;;46.70;28.10;;;7.90;99.90;;;;;;5043796;28;20633;-84
2021/11/15 12:34:24;;;;;;;41.70;27.80;;;7.90;99.90;;;;;;5046554;28;20158;-84
2021/11/15 12:36:54;;;;;;;39.60;25.10;;;7.90;99.90;;;;;;5049099;28;20187;-82
2021/11/15 12:39:45;;;;;;;45.90;30.13;;;8.00;99.90;;;;;;5050177;28;20211;-83
2021/11/15 12:42:25;;;;;;;46.43;28.97;;;7.90;99.90;;;;;;5047635;28;20193;-81
2021/11/15 12:45:12;;;;;;;46.90;30.07;;;7.90;99.90;;;;;;5042990;28;20290;-82